sensor_id;sensor_type;location;lat;lon;timestamp;pressure;altitude;pressure_sealevel;temperature;humidity
29045;BME280;16133;49.486;12.176;2023-12-20T00:01:29;97245.00;;;2.42;100.00
29045;BME280;16133;49.486;12.176;2023-12-20T00:03:54;97256.19;;;2.45;100.00
29045;BME280;16133;49.486;12.176;2023-12-20T00:06:19;97262.38;;;2.44;100.00
29045;BME280;16133;49.486;12.176;2023-12-20T00:08:45;97256.31;;;2.43;100.00
29045;BME280;16133;49.486;12.176;2023-12-20T00:11:10;97246.56;;;2.45;100.00
29045;BME280;16133;49.486;12.176;2023-12-20T00:13:36;97250.97;;;2.45;100.00
29045;BME280;16133;49.486;12.176;2023-12-20T00:16:01;97240.50;;;2.45;100.00
29045;BME280;16133;49.486;12.176;2023-12-20T00:18:32;97237.16;;;2.42;100.00
29045;BME280;16133;49.486;12.176;2023-12-20T00:20:58;97244.75;;;2.46;100.00
29045;BME280;16133;49.486;12.176;2023-12-20T00:23:23;97243.78;;;2.47;100.00
29045;BME280;16133;49.486;12.176;2023-12-20T00:25:49;97229.75;;;2.48;100.00
29045;BME280;16133;49.486;12.176;2023-12-20T00:28:14;97221.75;;;2.49;100.00
29045;BME280;16133;49.486;12.176;2023-12-20T00:30:40;97221.50;;;2.52;100.00
29045;BME280;16133;49.486;12.176;2023-12-20T00:33:05;97223.13;;;2.53;100.00
29045;BME280;16133;49.486;12.176;2023-12-20T00:35:30;97230.72;;;2.56;100.00
29045;BME280;16133;49.486;12.176;2023-12-20T00:37:56;97223.72;;;2.57;100.00
29045;BME280;16133;49.486;12.176;2023-12-20T00:40:21;97223.56;;;2.58;100.00
29045;BME280;16133;49.486;12.176;2023-12-20T00:42:47;97213.78;;;2.60;100.00
29045;BME280;16133;49.486;12.176;2023-12-20T00:45:13;97206.72;;;2.61;100.00
29045;BME280;16133;49.486;12.176;2023-12-20T00:47:39;97203.03;;;2.63;100.00
29045;BME280;16133;49.486;12.176;2023-12-20T00:50:05;97202.88;;;2.65;100.00
29045;BME280;16133;49.486;12.176;2023-12-20T00:52:31;97200.25;;;2.65;100.00
29045;BME280;16133;49.486;12.176;2023-12-20T00:54:56;97198.34;;;2.67;100.00
29045;BME280;16133;49.486;12.176;2023-12-20T00:57:21;97198.34;;;2.67;100.00
29045;BME280;16133;49.486;12.176;2023-12-20T00:59:48;97201.66;;;2.69;100.00
29045;BME280;16133;49.486;12.176;2023-12-20T01:02:13;97208.56;;;2.70;100.00
29045;BME280;16133;49.486;12.176;2023-12-20T01:04:39;97210.22;;;2.71;100.00
29045;BME280;16133;49.486;12.176;2023-12-20T01:07:04;97207.31;;;2.74;100.00
29045;BME280;16133;49.486;12.176;2023-12-20T01:09:29;97198.50;;;2.75;100.00
29045;BME280;16133;49.486;12.176;2023-12-20T01:11:55;97198.34;;;2.76;100.00
29045;BME280;16133;49.486;12.176;2023-12-20T01:14:20;97189.53;;;2.77;100.00
29045;BME280;16133;49.486;12.176;2023-12-20T01:16:47;97196.44;;;2.78;100.00
29045;BME280;16133;49.486;12.176;2023-12-20T01:19:13;97197.28;;;2.79;100.00
29045;BME280;16133;49.486;12.176;2023-12-20T01:21:39;97196.44;;;2.78;100.00
29045;BME280;16133;49.486;12.176;2023-12-20T01:24:04;97204.97;;;2.80;100.00
29045;BME280;16133;49.486;12.176;2023-12-20T01:26:30;97200.72;;;2.79;100.00
29045;BME280;16133;49.486;12.176;2023-12-20T01:28:55;97203.19;;;2.81;100.00
29045;BME280;16133;49.486;12.176;2023-12-20T01:31:20;97203.06;;;2.82;100.00
29045;BME280;16133;49.486;12.176;2023-12-20T01:33:46;97203.91;;;2.83;100.00
29045;BME280;16133;49.486;12.176;2023-12-20T01:36:11;97208.16;;;2.84;100.00
29045;BME280;16133;49.486;12.176;2023-12-20T01:38:37;97206.34;;;2.84;100.00
29045;BME280;16133;49.486;12.176;2023-12-20T01:41:03;97185.56;;;2.83;100.00
29045;BME280;16133;49.486;12.176;2023-12-20T01:43:29;97191.47;;;2.85;100.00
29045;BME280;16133;49.486;12.176;2023-12-20T01:45:56;97193.13;;;2.86;100.00
29045;BME280;16133;49.486;12.176;2023-12-20T01:48:22;97191.34;;;2.86;100.00
29045;BME280;16133;49.486;12.176;2023-12-20T01:50:48;97189.56;;;2.87;100.00
29045;BME280;16133;49.486;12.176;2023-12-20T01:53:14;97188.56;;;2.88;100.00
29045;BME280;16133;49.486;12.176;2023-12-20T01:55:40;97192.84;;;2.89;100.00
29045;BME280;16133;49.486;12.176;2023-12-20T01:58:08;97187.31;;;2.92;100.00
29045;BME280;16133;49.486;12.176;2023-12-20T02:00:34;97184.88;;;2.91;100.00
29045;BME280;16133;49.486;12.176;2023-12-20T02:03:03;97171.59;;;2.92;100.00
29045;BME280;16133;49.486;12.176;2023-12-20T02:05:34;97166.25;;;2.94;100.00
29045;BME280;16133;49.486;12.176;2023-12-20T02:08:00;97166.13;;;2.95;100.00
29045;BME280;16133;49.486;12.176;2023-12-20T02:10:25;97158.94;;;2.97;100.00
29045;BME280;16133;49.486;12.176;2023-12-20T02:12:51;97143.19;;;2.97;100.00
29045;BME280;16133;49.486;12.176;2023-12-20T02:15:16;97141.41;;;2.98;100.00
29045;BME280;16133;49.486;12.176;2023-12-20T02:17:42;97143.19;;;2.97;100.00
29045;BME280;16133;49.486;12.176;2023-12-20T02:20:09;97134.38;;;2.98;100.00
29045;BME280;16133;49.486;12.176;2023-12-20T02:22:34;97128.31;;;2.98;100.00
29045;BME280;16133;49.486;12.176;2023-12-20T02:24:59;97128.31;;;2.98;100.00
29045;BME280;16133;49.486;12.176;2023-12-20T02:27:25;97128.31;;;2.98;100.00
29045;BME280;16133;49.486;12.176;2023-12-20T02:29:51;97136.00;;;2.99;100.00
29045;BME280;16133;49.486;12.176;2023-12-20T02:32:17;97125.53;;;2.99;100.00
29045;BME280;16133;49.486;12.176;2023-12-20T02:34:43;97124.72;;;2.99;100.00
29045;BME280;16133;49.486;12.176;2023-12-20T02:37:08;97128.16;;;2.99;100.00
29045;BME280;16133;49.486;12.176;2023-12-20T02:39:34;97138.50;;;3.01;100.00
29045;BME280;16133;49.486;12.176;2023-12-20T02:41:59;97129.81;;;3.00;100.00
29045;BME280;16133;49.486;12.176;2023-12-20T02:44:24;97130.53;;;3.02;100.00
29045;BME280;16133;49.486;12.176;2023-12-20T02:46:53;97131.34;;;3.03;100.00
29045;BME280;16133;49.486;12.176;2023-12-20T02:49:18;97115.63;;;3.03;100.00
29045;BME280;16133;49.486;12.176;2023-12-20T02:51:44;97121.66;;;3.03;100.00
29045;BME280;16133;49.486;12.176;2023-12-20T02:54:09;97118.09;;;3.04;100.00
29045;BME280;16133;49.486;12.176;2023-12-20T02:56:34;97112.84;;;3.04;100.00
29045;BME280;16133;49.486;12.176;2023-12-20T02:59:00;97105.94;;;3.03;100.00
29045;BME280;16133;49.486;12.176;2023-12-20T03:01:26;97099.91;;;3.03;100.00
29045;BME280;16133;49.486;12.176;2023-12-20T03:03:51;97100.69;;;3.03;100.00
29045;BME280;16133;49.486;12.176;2023-12-20T03:06:18;97104.97;;;3.04;100.00
29045;BME280;16133;49.486;12.176;2023-12-20T03:08:44;97109.25;;;3.05;100.00
29045;BME280;16133;49.486;12.176;2023-12-20T03:11:09;97106.66;;;3.05;100.00
29045;BME280;16133;49.486;12.176;2023-12-20T03:13:34;97104.03;;;3.05;100.00
29045;BME280;16133;49.486;12.176;2023-12-20T03:16:00;97097.00;;;3.06;100.00
29045;BME280;16133;49.486;12.176;2023-12-20T03:18:25;97097.81;;;3.06;100.00
29045;BME280;16133;49.486;12.176;2023-12-20T03:20:53;97089.13;;;3.06;100.00
29045;BME280;16133;49.486;12.176;2023-12-20T03:23:18;97092.56;;;3.06;100.00
29045;BME280;16133;49.486;12.176;2023-12-20T03:25:43;97084.72;;;3.06;100.00
29045;BME280;16133;49.486;12.176;2023-12-20T03:28:09;97097.00;;;3.06;100.00
29045;BME280;16133;49.486;12.176;2023-12-20T03:30:34;97084.19;;;3.03;100.00
29045;BME280;16133;49.486;12.176;2023-12-20T03:32:59;97088.97;;;3.07;100.00
29045;BME280;16133;49.486;12.176;2023-12-20T03:35:25;97089.81;;;3.08;100.00
29045;BME280;16133;49.486;12.176;2023-12-20T03:37:50;97088.00;;;3.08;100.00
29045;BME280;16133;49.486;12.176;2023-12-20T03:40:16;97083.59;;;3.09;100.00
29045;BME280;16133;49.486;12.176;2023-12-20T03:42:41;97081.81;;;3.09;100.00
29045;BME280;16133;49.486;12.176;2023-12-20T03:45:07;97089.66;;;3.09;100.00
29045;BME280;16133;49.486;12.176;2023-12-20T03:47:32;97096.69;;;3.09;100.00
29045;BME280;16133;49.486;12.176;2023-12-20T03:49:57;97096.41;;;3.12;100.00
29045;BME280;16133;49.486;12.176;2023-12-20T03:52:23;97095.44;;;3.13;100.00
29045;BME280;16133;49.486;12.176;2023-12-20T03:54:48;97095.44;;;3.13;100.00
29045;BME280;16133;49.486;12.176;2023-12-20T03:57:13;97085.81;;;3.13;100.00
29045;BME280;16133;49.486;12.176;2023-12-20T03:59:39;97080.00;;;3.10;100.00
29045;BME280;16133;49.486;12.176;2023-12-20T04:02:04;97090.75;;;3.16;100.00
29045;BME280;16133;49.486;12.176;2023-12-20T04:04:30;97092.66;;;3.24;100.00
29045;BME280;16133;49.486;12.176;2023-12-20T04:06:55;97098.31;;;3.19;100.00
29045;BME280;16133;49.486;12.176;2023-12-20T04:09:20;97102.31;;;3.23;100.00
29045;BME280;16133;49.486;12.176;2023-12-20T04:11:46;97111.84;;;3.24;100.00
29045;BME280;16133;49.486;12.176;2023-12-20T04:14:11;97106.44;;;3.26;100.00
29045;BME280;16133;49.486;12.176;2023-12-20T04:16:37;97109.78;;;3.18;100.00
29045;BME280;16133;49.486;12.176;2023-12-20T04:19:02;97112.28;;;3.20;100.00
29045;BME280;16133;49.486;12.176;2023-12-20T04:21:27;97117.25;;;3.13;100.00
29045;BME280;16133;49.486;12.176;2023-12-20T04:23:53;97115.19;;;3.17;100.00
29045;BME280;16133;49.486;12.176;2023-12-20T04:26:18;97114.22;;;3.08;100.00
29045;BME280;16133;49.486;12.176;2023-12-20T04:28:43;97112.31;;;3.10;100.00
29045;BME280;16133;49.486;12.176;2023-12-20T04:31:09;97115.19;;;3.07;100.00
29045;BME280;16133;49.486;12.176;2023-12-20T04:33:34;97115.19;;;3.07;100.00
29045;BME280;16133;49.486;12.176;2023-12-20T04:35:59;97122.50;;;3.04;100.00
29045;BME280;16133;49.486;12.176;2023-12-20T04:38:25;97118.94;;;2.95;100.00
29045;BME280;16133;49.486;12.176;2023-12-20T04:40:51;97123.75;;;3.00;100.00
29045;BME280;16133;49.486;12.176;2023-12-20T04:43:17;97125.81;;;2.96;100.00
29045;BME280;16133;49.486;12.176;2023-12-20T04:45:42;97122.81;;;2.91;100.00
29045;BME280;16133;49.486;12.176;2023-12-20T04:48:08;97123.06;;;2.88;100.00
29045;BME280;16133;49.486;12.176;2023-12-20T04:50:33;97120.88;;;2.83;100.00
29045;BME280;16133;49.486;12.176;2023-12-20T04:52:58;97129.69;;;2.92;100.00
29045;BME280;16133;49.486;12.176;2023-12-20T04:55:24;97132.72;;;2.87;100.00
29045;BME280;16133;49.486;12.176;2023-12-20T04:57:49;97124.59;;;2.81;100.00
29045;BME280;16133;49.486;12.176;2023-12-20T05:00:15;97116.06;;;2.79;100.00
29045;BME280;16133;49.486;12.176;2023-12-20T05:02:40;97124.75;;;2.79;100.00
29045;BME280;16133;49.486;12.176;2023-12-20T05:05:06;97117.84;;;2.78;100.00
29045;BME280;16133;49.486;12.176;2023-12-20T05:07:32;97115.22;;;2.78;100.00
29045;BME280;16133;49.486;12.176;2023-12-20T05:09:58;97115.34;;;2.77;100.00
29045;BME280;16133;49.486;12.176;2023-12-20T05:12:23;97117.84;;;2.78;100.00
29045;BME280;16133;49.486;12.176;2023-12-20T05:14:49;97115.06;;;2.80;100.00
29045;BME280;16133;49.486;12.176;2023-12-20T05:17:14;97124.03;;;2.77;100.00
29045;BME280;16133;49.486;12.176;2023-12-20T05:19:39;97124.44;;;2.73;100.00
29045;BME280;16133;49.486;12.176;2023-12-20T05:22:05;97134.91;;;2.73;100.00
29045;BME280;16133;49.486;12.176;2023-12-20T05:24:30;97135.75;;;2.73;100.00
29045;BME280;16133;49.486;12.176;2023-12-20T05:26:55;97140.16;;;2.73;100.00
29045;BME280;16133;49.486;12.176;2023-12-20T05:29:21;97147.91;;;2.74;100.00
29045;BME280;16133;49.486;12.176;2023-12-20T05:31:46;97147.06;;;2.74;100.00
29045;BME280;16133;49.486;12.176;2023-12-20T05:34:12;97138.25;;;2.75;100.00
29045;BME280;16133;49.486;12.176;2023-12-20T05:36:37;97145.28;;;2.74;100.00
29045;BME280;16133;49.486;12.176;2023-12-20T05:39:04;97141.41;;;2.69;100.00
29045;BME280;16133;49.486;12.176;2023-12-20T05:41:30;97151.34;;;2.75;100.00
29045;BME280;16133;49.486;12.176;2023-12-20T05:43:55;97161.66;;;2.76;100.00
29045;BME280;16133;49.486;12.176;2023-12-20T05:46:23;97169.41;;;2.78;100.00
29045;BME280;16133;49.486;12.176;2023-12-20T05:48:48;97176.84;;;2.73;100.00
29045;BME280;16133;49.486;12.176;2023-12-20T05:51:14;97187.31;;;2.73;100.00
29045;BME280;16133;49.486;12.176;2023-12-20T05:53:39;97185.69;;;2.72;100.00
29045;BME280;16133;49.486;12.176;2023-12-20T05:56:05;97188.97;;;2.74;100.00
29045;BME280;16133;49.486;12.176;2023-12-20T05:58:31;97181.53;;;2.69;100.00
29045;BME280;16133;49.486;12.176;2023-12-20T06:00:57;97187.59;;;2.60;100.00
29045;BME280;16133;49.486;12.176;2023-12-20T06:03:22;97177.53;;;2.65;100.00
29045;BME280;16133;49.486;12.176;2023-12-20T06:05:48;97165.81;;;2.60;100.00
29045;BME280;16133;49.486;12.176;2023-12-20T06:08:14;97182.34;;;2.70;100.00
29045;BME280;16133;49.486;12.176;2023-12-20T06:10:39;97194.50;;;2.80;100.00
29045;BME280;16133;49.486;12.176;2023-12-20T06:13:05;97200.84;;;2.78;100.00
29045;BME280;16133;49.486;12.176;2023-12-20T06:15:32;97185.69;;;2.72;100.00
29045;BME280;16133;49.486;12.176;2023-12-20T06:17:58;97188.31;;;2.72;100.00
29045;BME280;16133;49.486;12.176;2023-12-20T06:20:23;97187.31;;;2.73;100.00
29045;BME280;16133;49.486;12.176;2023-12-20T06:22:48;97196.16;;;2.72;100.00
29045;BME280;16133;49.486;12.176;2023-12-20T06:25:14;97210.88;;;2.73;100.00
29045;BME280;16133;49.486;12.176;2023-12-20T06:27:39;97208.97;;;2.75;100.00
29045;BME280;16133;49.486;12.176;2023-12-20T06:30:06;97209.66;;;2.77;100.00
29045;BME280;16133;49.486;12.176;2023-12-20T06:32:32;97203.59;;;2.76;100.00
29045;BME280;16133;49.486;12.176;2023-12-20T06:34:59;97211.31;;;2.78;100.00
29045;BME280;16133;49.486;12.176;2023-12-20T06:37:24;97214.22;;;2.75;100.00
29045;BME280;16133;49.486;12.176;2023-12-20T06:39:50;97217.41;;;2.78;100.00
29045;BME280;16133;49.486;12.176;2023-12-20T06:42:15;97219.75;;;2.72;100.00
29045;BME280;16133;49.486;12.176;2023-12-20T06:44:40;97208.97;;;2.84;100.00
29045;BME280;16133;49.486;12.176;2023-12-20T06:47:06;97215.19;;;2.74;100.00
29045;BME280;16133;49.486;12.176;2023-12-20T06:49:32;97214.91;;;2.77;100.00
29045;BME280;16133;49.486;12.176;2023-12-20T06:51:57;97211.59;;;2.75;100.00
29045;BME280;16133;49.486;12.176;2023-12-20T06:54:22;97218.75;;;2.73;100.00
29045;BME280;16133;49.486;12.176;2023-12-20T06:56:48;97215.19;;;2.74;100.00
29045;BME280;16133;49.486;12.176;2023-12-20T06:59:13;97213.50;;;2.73;100.00
29045;BME280;16133;49.486;12.176;2023-12-20T07:01:38;97213.50;;;2.73;100.00
29045;BME280;16133;49.486;12.176;2023-12-20T07:04:04;97225.38;;;2.77;100.00
29045;BME280;16133;49.486;12.176;2023-12-20T07:06:29;97226.38;;;2.76;100.00
29045;BME280;16133;49.486;12.176;2023-12-20T07:08:54;97232.28;;;2.78;100.00
29045;BME280;16133;49.486;12.176;2023-12-20T07:11:20;97237.66;;;2.76;100.00
29045;BME280;16133;49.486;12.176;2023-12-20T07:13:45;97248.97;;;2.77;100.00
29045;BME280;16133;49.486;12.176;2023-12-20T07:16:11;97239.03;;;2.80;100.00
29045;BME280;16133;49.486;12.176;2023-12-20T07:18:36;97244.81;;;2.84;100.00
29045;BME280;16133;49.486;12.176;2023-12-20T07:21:01;97249.13;;;2.85;100.00
29045;BME280;16133;49.486;12.176;2023-12-20T07:23:27;97252.69;;;2.84;100.00
29045;BME280;16133;49.486;12.176;2023-12-20T07:25:52;97252.69;;;2.84;100.00
29045;BME280;16133;49.486;12.176;2023-12-20T07:28:17;97264.16;;;2.83;100.00
29045;BME280;16133;49.486;12.176;2023-12-20T07:30:43;97268.28;;;2.85;100.00
29045;BME280;16133;49.486;12.176;2023-12-20T07:33:08;97256.69;;;2.88;100.00
29045;BME280;16133;49.486;12.176;2023-12-20T07:35:34;97272.00;;;2.93;100.00
29045;BME280;16133;49.486;12.176;2023-12-20T07:38:00;97274.63;;;2.93;100.00
29045;BME280;16133;49.486;12.176;2023-12-20T07:40:25;97284.03;;;2.95;100.00
29045;BME280;16133;49.486;12.176;2023-12-20T07:42:51;97283.34;;;2.93;100.00
29045;BME280;16133;49.486;12.176;2023-12-20T07:45:16;97278.22;;;2.92;100.00
29045;BME280;16133;49.486;12.176;2023-12-20T07:47:41;97276.31;;;2.94;100.00
29045;BME280;16133;49.486;12.176;2023-12-20T07:50:07;97289.41;;;2.94;100.00
29045;BME280;16133;49.486;12.176;2023-12-20T07:52:32;97283.22;;;2.95;100.00
29045;BME280;16133;49.486;12.176;2023-12-20T07:54:58;97281.66;;;2.92;100.00
29045;BME280;16133;49.486;12.176;2023-12-20T07:57:23;97278.66;;;2.97;100.00
29045;BME280;16133;49.486;12.176;2023-12-20T07:59:49;97285.00;;;2.94;100.00
29045;BME280;16133;49.486;12.176;2023-12-20T08:02:14;97300.31;;;2.99;100.00
29045;BME280;16133;49.486;12.176;2023-12-20T08:04:40;97301.84;;;3.01;100.00
29045;BME280;16133;49.486;12.176;2023-12-20T08:07:06;97303.22;;;3.05;100.00
29045;BME280;16133;49.486;12.176;2023-12-20T08:09:31;97305.56;;;3.08;100.00
29045;BME280;16133;49.486;12.176;2023-12-20T08:11:58;97295.78;;;3.10;100.00
29045;BME280;16133;49.486;12.176;2023-12-20T08:14:25;97302.00;;;3.28;100.00
29045;BME280;16133;49.486;12.176;2023-12-20T08:16:50;97304.91;;;3.25;100.00
29045;BME280;16133;49.486;12.176;2023-12-20T08:19:16;97322.03;;;3.29;100.00
29045;BME280;16133;49.486;12.176;2023-12-20T08:21:42;97318.13;;;3.33;100.00
29045;BME280;16133;49.486;12.176;2023-12-20T08:24:08;97313.03;;;3.42;100.00
29045;BME280;16133;49.486;12.176;2023-12-20T08:26:33;97309.88;;;3.48;100.00
29045;BME280;16133;49.486;12.176;2023-12-20T08:28:59;97309.31;;;3.54;100.00
29045;BME280;16133;49.486;12.176;2023-12-20T08:31:24;97312.22;;;3.60;100.00
29045;BME280;16133;49.486;12.176;2023-12-20T08:33:50;97318.41;;;3.69;100.00
29045;BME280;16133;49.486;12.176;2023-12-20T08:36:15;97312.88;;;3.72;100.00
29045;BME280;16133;49.486;12.176;2023-12-20T08:38:43;97320.22;;;3.78;100.00
29045;BME280;16133;49.486;12.176;2023-12-20T08:41:08;97321.44;;;3.83;100.00
29045;BME280;16133;49.486;12.176;2023-12-20T08:43:34;97327.66;;;3.92;100.00
29045;BME280;16133;49.486;12.176;2023-12-20T08:46:00;97328.88;;;4.07;100.00
29045;BME280;16133;49.486;12.176;2023-12-20T08:48:25;97336.31;;;4.21;100.00
29045;BME280;16133;49.486;12.176;2023-12-20T08:50:51;97323.16;;;4.31;100.00
29045;BME280;16133;49.486;12.176;2023-12-20T08:53:18;97320.78;;;4.38;100.00
29045;BME280;16133;49.486;12.176;2023-12-20T08:55:44;97333.53;;;4.32;100.00
29045;BME280;16133;49.486;12.176;2023-12-20T08:58:09;97334.38;;;4.33;100.00
29045;BME280;16133;49.486;12.176;2023-12-20T09:00:35;97342.38;;;4.31;100.00
29045;BME280;16133;49.486;12.176;2023-12-20T09:03:03;97338.78;;;4.32;100.00
29045;BME280;16133;49.486;12.176;2023-12-20T09:05:29;97335.16;;;4.33;100.00
29045;BME280;16133;49.486;12.176;2023-12-20T09:07:55;97329.06;;;4.43;100.00
29045;BME280;16133;49.486;12.176;2023-12-20T09:10:20;97329.84;;;4.53;100.00
29045;BME280;16133;49.486;12.176;2023-12-20T09:12:54;97323.44;;;4.65;100.00
29045;BME280;16133;49.486;12.176;2023-12-20T09:15:25;97326.88;;;4.75;100.00
29045;BME280;16133;49.486;12.176;2023-12-20T09:17:50;97328.06;;;4.80;100.00
29045;BME280;16133;49.486;12.176;2023-12-20T09:20:16;97331.63;;;4.89;100.00
29045;BME280;16133;49.486;12.176;2023-12-20T09:22:41;97333.22;;;5.00;100.00
29045;BME280;16133;49.486;12.176;2023-12-20T09:25:08;97346.25;;;5.01;100.00
29045;BME280;16133;49.486;12.176;2023-12-20T09:27:33;97342.50;;;5.04;100.00
29045;BME280;16133;49.486;12.176;2023-12-20T09:29:58;97331.53;;;5.08;100.00
29045;BME280;16133;49.486;12.176;2023-12-20T09:32:24;97329.84;;;5.17;100.00
29045;BME280;16133;49.486;12.176;2023-12-20T09:34:49;97330.06;;;5.23;100.00
29045;BME280;16133;49.486;12.176;2023-12-20T09:37:14;97316.59;;;5.26;100.00
29045;BME280;16133;49.486;12.176;2023-12-20T09:39:40;97328.19;;;5.34;100.00
29045;BME280;16133;49.486;12.176;2023-12-20T09:42:06;97328.56;;;5.39;100.00
29045;BME280;16133;49.486;12.176;2023-12-20T09:44:33;97323.09;;;5.50;100.00
29045;BME280;16133;49.486;12.176;2023-12-20T09:47:02;97334.22;;;5.61;100.00
29045;BME280;16133;49.486;12.176;2023-12-20T09:49:29;97323.44;;;5.72;100.00
29045;BME280;16133;49.486;12.176;2023-12-20T09:51:56;97330.16;;;5.67;100.00
29045;BME280;16133;49.486;12.176;2023-12-20T09:54:22;97337.59;;;5.54;100.00
29045;BME280;16133;49.486;12.176;2023-12-20T09:56:49;97336.25;;;5.32;100.00
29045;BME280;16133;49.486;12.176;2023-12-20T09:59:14;97340.72;;;5.22;100.00
29045;BME280;16133;49.486;12.176;2023-12-20T10:01:41;97344.47;;;5.19;100.00
29045;BME280;16133;49.486;12.176;2023-12-20T10:04:08;97347.50;;;5.24;100.00
29045;BME280;16133;49.486;12.176;2023-12-20T10:06:40;97342.16;;;5.34;100.00
29045;BME280;16133;49.486;12.176;2023-12-20T10:09:06;97343.16;;;5.51;100.00
29045;BME280;16133;49.486;12.176;2023-12-20T10:11:31;97338.88;;;5.50;100.00
29045;BME280;16133;49.486;12.176;2023-12-20T10:14:00;97341.19;;;5.17;100.00
29045;BME280;16133;49.486;12.176;2023-12-20T10:16:26;97344.69;;;5.08;100.00
29045;BME280;16133;49.486;12.176;2023-12-20T10:18:55;97337.00;;;4.97;100.00
29045;BME280;16133;49.486;12.176;2023-12-20T10:21:25;97333.22;;;5.00;100.00
29045;BME280;16133;49.486;12.176;2023-12-20T10:23:54;97337.47;;;5.10;100.00
29045;BME280;16133;49.486;12.176;2023-12-20T10:26:21;97332.59;;;5.15;100.00
29045;BME280;16133;49.486;12.176;2023-12-20T10:28:46;97335.63;;;5.20;100.00
29045;BME280;16133;49.486;12.176;2023-12-20T10:31:35;97332.09;;;5.02;100.00
29045;BME280;16133;49.486;12.176;2023-12-20T10:34:02;97329.56;;;4.83;100.00
29045;BME280;16133;49.486;12.176;2023-12-20T10:36:30;97321.63;;;4.75;100.00
29045;BME280;16133;49.486;12.176;2023-12-20T10:38:56;97323.69;;;4.71;100.00
29045;BME280;16133;49.486;12.176;2023-12-20T10:41:27;97317.84;;;4.50;100.00
29045;BME280;16133;49.486;12.176;2023-12-20T10:44:01;97323.06;;;4.04;100.00
29045;BME280;16133;49.486;12.176;2023-12-20T10:46:27;97308.47;;;3.82;100.00
29045;BME280;16133;49.486;12.176;2023-12-20T10:48:55;97321.19;;;3.77;100.00
29045;BME280;16133;49.486;12.176;2023-12-20T10:51:21;97321.22;;;3.67;100.00
29045;BME280;16133;49.486;12.176;2023-12-20T10:53:48;97317.34;;;3.71;100.00
29045;BME280;16133;49.486;12.176;2023-12-20T10:56:16;97310.69;;;3.87;100.00
29045;BME280;16133;49.486;12.176;2023-12-20T10:58:43;97312.03;;;4.10;100.00
29045;BME280;16133;49.486;12.176;2023-12-20T11:01:12;97308.09;;;4.23;100.00
29045;BME280;16133;49.486;12.176;2023-12-20T11:03:38;97306.31;;;4.24;100.00
29045;BME280;16133;49.486;12.176;2023-12-20T11:06:43;97303.81;;;4.32;100.00
29045;BME280;16133;49.486;12.176;2023-12-20T11:14:34;97279.44;;;4.40;100.00
29045;BME280;16133;49.486;12.176;2023-12-20T11:17:09;97271.91;;;4.54;100.00
29045;BME280;16133;49.486;12.176;2023-12-20T11:22:25;97276.00;;;4.66;100.00
29045;BME280;16133;49.486;12.176;2023-12-20T11:24:52;97274.22;;;4.67;100.00
29045;BME280;16133;49.486;12.176;2023-12-20T11:27:18;97279.38;;;4.86;100.00
29045;BME280;16133;49.486;12.176;2023-12-20T11:29:52;97277.00;;;4.83;100.00
29045;BME280;16133;49.486;12.176;2023-12-20T11:35:01;97279.00;;;4.71;100.00
29045;BME280;16133;49.486;12.176;2023-12-20T11:37:30;97268.84;;;4.59;100.00
29045;BME280;16133;49.486;12.176;2023-12-20T11:40:02;97275.13;;;4.48;100.00
29045;BME280;16133;49.486;12.176;2023-12-20T11:42:33;97273.78;;;4.34;100.00
29045;BME280;16133;49.486;12.176;2023-12-20T11:44:59;97273.78;;;4.34;100.00
29045;BME280;16133;49.486;12.176;2023-12-20T11:47:25;97265.34;;;4.41;100.00
29045;BME280;16133;49.486;12.176;2023-12-20T11:49:50;97270.41;;;4.52;100.00
29045;BME280;16133;49.486;12.176;2023-12-20T11:52:16;97270.88;;;4.65;100.00
29045;BME280;16133;49.486;12.176;2023-12-20T11:54:41;97279.25;;;4.51;100.00
29045;BME280;16133;49.486;12.176;2023-12-20T11:57:07;97278.06;;;4.36;100.00
29045;BME280;16133;49.486;12.176;2023-12-20T11:59:33;97265.44;;;4.21;100.00
29045;BME280;16133;49.486;12.176;2023-12-20T12:01:58;97269.16;;;4.19;100.00
29045;BME280;16133;49.486;12.176;2023-12-20T12:04:26;97278.03;;;4.08;100.00
29045;BME280;16133;49.486;12.176;2023-12-20T12:06:52;97277.91;;;4.10;100.00
29045;BME280;16133;49.486;12.176;2023-12-20T12:09:17;97281.06;;;4.13;100.00
29045;BME280;16133;49.486;12.176;2023-12-20T12:11:43;97279.94;;;4.16;100.00
29045;BME280;16133;49.486;12.176;2023-12-20T12:14:08;97281.72;;;4.25;100.00
29045;BME280;16133;49.486;12.176;2023-12-20T12:16:34;97269.25;;;4.37;100.00
29045;BME280;16133;49.486;12.176;2023-12-20T12:19:00;97267.50;;;4.45;100.00
29045;BME280;16133;49.486;12.176;2023-12-20T12:21:25;97275.38;;;4.55;100.00
29045;BME280;16133;49.486;12.176;2023-12-20T12:23:51;97274.00;;;4.51;100.00
29045;BME280;16133;49.486;12.176;2023-12-20T12:26:16;97267.88;;;4.60;100.00
29045;BME280;16133;49.486;12.176;2023-12-20T12:28:42;97273.59;;;4.46;100.00
29045;BME280;16133;49.486;12.176;2023-12-20T12:31:09;97267.69;;;4.44;100.00
29045;BME280;16133;49.486;12.176;2023-12-20T12:33:40;97268.50;;;4.44;100.00
29045;BME280;16133;49.486;12.176;2023-12-20T12:36:07;97261.44;;;4.45;100.00
29045;BME280;16133;49.486;12.176;2023-12-20T12:38:33;97259.84;;;4.61;100.00
29045;BME280;16133;49.486;12.176;2023-12-20T12:41:00;97242.72;;;4.57;100.00
29045;BME280;16133;49.486;12.176;2023-12-20T12:43:25;97244.06;;;4.61;100.00
29045;BME280;16133;49.486;12.176;2023-12-20T12:45:51;97264.97;;;4.63;100.00
29045;BME280;16133;49.486;12.176;2023-12-20T12:48:16;97250.25;;;4.70;100.00
29045;BME280;16133;49.486;12.176;2023-12-20T12:50:42;97250.94;;;4.72;100.00
29045;BME280;16133;49.486;12.176;2023-12-20T12:53:07;97247.28;;;4.82;100.00
29045;BME280;16133;49.486;12.176;2023-12-20T12:55:33;97243.03;;;4.72;100.00